Terminal Aerodrome Forecast
Issued by NWS Albany, NY

Home | Current Version | Previous Version | Text Only | Print | Product List | Glossary On
Versions: 1 2 3 4 5 6 7 8 9 10 11 12 13 14 15 16 17 18 19 20 21 22 23 24 25 26
102
FTUS41 KALY 252320
TAFGFL
TAF
KGFL 252320Z 2600/2624 27007KT P6SM SCT080 SCT100
     FM260400 VRB03KT P6SM SKC
     FM260800 00000KT 4SM BR FEW080
     FM261300 15003KT P6SM FEW050 SCT080
     FM261800 15006KT P6SM VCSH BKN050 OVC070=

USA.gov is the U.S. government's official web portal to all federal, state and local government web resources and services.